Aviation Digital Data Service (ADDS)

Output produced by TAFs form (1815 UTC 25 July 2014)
found at http://aviationweather.gov/adds/tafs/
 
KTCC 251732Z 2518/2618 22014G23KT P6SM FEW100 
     FM260200 22015KT P6SM SCT150